Time;durP1;ratioP1;P1;durP2;ratioP2;P2;SDS_P1;SDS_P2;PMS_P1;PMS_P2;Temp;Humidity;BMP_temperature;BMP_pressure;BME280_temperature;BME280_humidity;BME280_pressure;Samples;Min_cycle;Max_cycle;Signal;HPM_P1;HPM_P2
2023/05/10 00:01:29;;;;;;;7.15;4.88;;;;;;;8.28;100.00;94891.50;5132154;27;20201;-75
2023/05/10 00:03:56;;;;;;;6.18;4.40;;;;;;;8.25;100.00;94884.81;5132086;27;20332;-74
2023/05/10 00:06:22;;;;;;;6.60;4.13;;;;;;;8.30;100.00;94884.69;5131728;27;20250;-74
2023/05/10 00:08:49;;;;;;;6.60;3.60;;;;;;;8.25;100.00;94884.81;5131997;27;20231;-74
2023/05/10 00:11:16;;;;;;;7.88;4.93;;;;;;;8.24;100.00;94883.22;5131604;27;20261;-74
2023/05/10 00:13:43;;;;;;;7.72;5.43;;;;;;;8.22;100.00;94880.00;5131688;27;20593;-74
2023/05/10 00:16:12;;;;;;;5.85;3.97;;;;;;;8.15;100.00;94864.25;5131339;27;20300;-74
2023/05/10 00:18:39;;;;;;;6.60;3.80;;;;;;;8.16;100.00;94873.16;5139157;27;20208;-73
2023/05/10 00:21:06;;;;;;;8.63;5.05;;;;;;;8.14;100.00;94875.34;5136846;27;20245;-74
2023/05/10 00:23:33;;;;;;;6.72;4.05;;;;;;;8.13;100.00;94871.84;5131373;27;20211;-74
2023/05/10 00:26:00;;;;;;;4.13;2.90;;;;;;;8.11;100.00;94874.06;5131254;27;20225;-74
2023/05/10 00:28:28;;;;;;;6.28;4.00;;;;;;;8.07;100.00;94872.28;5131229;27;20334;-74
2023/05/10 00:30:55;;;;;;;6.50;4.32;;;;;;;8.10;100.00;94877.06;5131472;27;20617;-73
2023/05/10 00:33:23;;;;;;;6.70;4.35;;;;;;;8.02;100.00;94870.50;5130971;27;20245;-73
2023/05/10 00:35:50;;;;;;;8.57;5.13;;;;;;;8.00;100.00;94866.50;5130781;27;20208;-74
2023/05/10 00:38:17;;;;;;;9.45;5.38;;;;;;;7.99;100.00;94875.72;5130776;27;20224;-75
2023/05/10 00:40:44;;;;;;;6.05;4.05;;;;;;;7.97;100.00;94867.13;5130520;27;20204;-75
2023/05/10 00:43:10;;;;;;;7.03;4.88;;;;;;;7.93;100.00;94866.13;5131163;27;20209;-74
2023/05/10 00:45:38;;;;;;;11.23;5.68;;;;;;;7.92;100.00;94853.75;5130648;27;20204;-74
2023/05/10 00:48:06;;;;;;;5.40;4.10;;;;;;;7.92;100.00;94853.75;5130697;27;20228;-74
2023/05/10 00:50:34;;;;;;;6.63;4.30;;;;;;;7.92;100.00;94859.16;5127330;27;20258;-74
2023/05/10 00:53:02;;;;;;;8.60;4.38;;;;;;;7.94;100.00;94856.94;5132042;27;20218;-74
2023/05/10 00:55:29;;;;;;;9.93;6.38;;;;;;;7.96;100.00;94860.13;5133464;27;20193;-75
2023/05/10 00:57:56;;;;;;;7.00;4.32;;;;;;;7.95;100.00;94853.94;5131017;27;20292;-75
2023/05/10 01:00:23;;;;;;;6.38;4.93;;;;;;;7.94;100.00;94856.94;5130373;27;20659;-75
2023/05/10 01:02:50;;;;;;;7.38;4.32;;;;;;;7.92;100.00;94853.75;5130994;27;20235;-74
2023/05/10 01:05:17;;;;;;;7.43;4.43;;;;;;;7.91;100.00;94852.16;5130829;27;20261;-74
2023/05/10 01:07:45;;;;;;;6.65;3.65;;;;;;;7.93;100.00;94849.94;5130445;27;20197;-74
2023/05/10 01:10:12;;;;;;;8.63;5.40;;;;;;;7.90;100.00;94850.56;5130747;27;20208;-75
2023/05/10 01:12:41;;;;;;;7.90;5.28;;;;;;;7.88;100.00;94847.38;5130587;27;20248;-75
2023/05/10 01:15:10;;;;;;;10.40;6.88;;;;;;;7.85;100.00;94852.28;5130680;27;20213;-74
2023/05/10 01:17:40;;;;;;;6.07;3.72;;;;;;;7.89;100.00;94851.69;5129617;27;20226;-75
2023/05/10 01:20:10;;;;;;;9.13;5.70;;;;;;;7.82;100.00;94842.09;5109874;28;20201;-74
2023/05/10 01:23:16;;;;;;;7.03;4.65;;;;;;;7.85;100.00;94838.00;5124716;27;20193;-74
2023/05/10 01:26:12;;;;;;;5.90;4.45;;;;;;;7.80;100.00;94841.59;5117975;27;20237;-75
2023/05/10 01:29:12;;;;;;;15.98;9.93;;;;;;;7.83;100.00;94832.91;5117922;27;20278;-74
2023/05/10 01:32:14;;;;;;;13.95;9.43;;;;;;;7.84;100.00;94831.81;5118059;27;20201;-75
2023/05/10 01:34:54;;;;;;;9.38;5.90;;;;;;;7.78;100.00;94843.81;5116054;27;20240;-75
2023/05/10 01:37:29;;;;;;;11.60;8.95;;;;;;;7.78;100.00;94832.25;5129893;27;20841;-75
2023/05/10 01:40:01;;;;;;;11.00;7.63;;;;;;;7.77;100.00;94826.03;5129790;27;20204;-75
2023/05/10 01:42:35;;;;;;;4.53;2.65;;;;;;;7.72;100.00;94839.63;5129844;27;20292;-75
2023/05/10 01:45:13;;;;;;;5.45;3.28;;;;;;;7.72;100.00;94826.16;5130217;27;20276;-76
2023/05/10 01:47:42;;;;;;;3.58;2.63;;;;;;;7.69;100.00;94821.34;5116503;27;20185;-74
2023/05/10 01:50:16;;;;;;;6.35;2.85;;;;;;;7.65;100.00;94833.88;5130302;27;20232;-75
2023/05/10 01:52:45;;;;;;;2.33;2.10;;;;;;;7.63;100.00;94817.19;5130021;28;20205;-75
2023/05/10 01:55:16;;;;;;;5.70;3.92;;;;;;;7.56;100.00;94818.69;5129807;28;20200;-75
2023/05/10 01:57:45;;;;;;;5.63;3.75;;;;;;;7.52;100.00;94823.13;5129423;28;20196;-75
2023/05/10 02:00:14;;;;;;;3.83;2.60;;;;;;;7.48;100.00;94822.94;5129417;28;20197;-76
2023/05/10 02:02:45;;;;;;;2.38;2.15;;;;;;;7.49;100.00;94819.94;5129540;28;20201;-76
2023/05/10 02:05:15;;;;;;;4.65;3.00;;;;;;;7.52;100.00;94831.97;5129721;28;20254;-75
2023/05/10 02:07:43;;;;;;;4.07;3.05;;;;;;;7.41;100.00;94823.31;5129928;28;20675;-75
2023/05/10 02:10:11;;;;;;;3.20;2.60;;;;;;;7.41;100.00;94826.03;5129745;28;20236;-75
2023/05/10 02:12:42;;;;;;;3.53;2.78;;;;;;;7.35;100.00;94824.56;5129554;28;20254;-74
2023/05/10 02:15:12;;;;;;;7.15;5.57;;;;;;;7.32;100.00;94840.50;5130125;28;20254;-75
2023/05/10 02:17:40;;;;;;;7.28;5.63;;;;;;;7.22;100.00;94819.19;5129389;28;20204;-78
2023/05/10 02:20:09;;;;;;;8.40;5.40;;;;;;;7.11;100.00;94835.53;5129833;28;20201;-76
2023/05/10 02:22:38;;;;;;;7.88;5.85;;;;;;;7.04;100.00;94824.38;5129897;28;20325;-75
2023/05/10 02:25:07;;;;;;;9.75;5.32;;;;;;;6.94;100.00;94827.28;5116238;28;20289;-75
2023/05/10 02:27:35;;;;;;;5.97;3.97;;;;;;;6.88;98.83;94831.16;5130189;27;20258;-77
2023/05/10 02:30:03;;;;;;;7.28;5.22;;;;;;;6.78;98.97;94848.31;5133797;27;20228;-75
2023/05/10 02:32:31;;;;;;;4.55;3.83;;;;;;;6.68;96.91;94842.31;5133132;27;20287;-76
2023/05/10 02:35:02;;;;;;;5.72;4.65;;;;;;;6.67;95.86;94830.75;5133371;27;20196;-75
2023/05/10 02:37:29;;;;;;;5.20;4.07;;;;;;;6.52;94.89;94827.53;5147142;27;20646;-76
2023/05/10 02:39:59;;;;;;;7.30;4.85;;;;;;;6.55;96.47;94848.47;5133468;27;20728;-75
2023/05/10 02:42:28;;;;;;;5.93;4.25;;;;;;;6.52;96.65;94835.63;5132811;27;20597;-78
2023/05/10 02:45:00;;;;;;;8.32;5.55;;;;;;;6.46;98.20;94837.59;5131112;27;20200;-76
2023/05/10 02:47:27;;;;;;;6.93;5.93;;;;;;;6.34;99.18;94826.50;5132708;27;20651;-77
2023/05/10 02:49:54;;;;;;;3.95;2.58;;;;;;;6.41;99.77;94832.31;5132933;27;20235;-77
2023/05/10 02:52:27;;;;;;;6.82;4.10;;;;;;;6.40;99.05;94828.81;5132593;27;20205;-80
2023/05/10 02:55:05;;;;;;;6.85;5.68;;;;;;;6.33;99.88;94831.09;5133129;27;20193;-77
2023/05/10 02:57:35;;;;;;;8.60;6.03;;;;;;;6.33;99.96;94825.72;5112411;28;20193;-77
2023/05/10 03:00:03;;;;;;;10.30;6.47;;;;;;;6.30;100.00;94826.28;5133091;27;20287;-76
2023/05/10 03:02:30;;;;;;;7.38;5.80;;;;;;;6.29;100.00;94832.75;5132607;27;20719;-80
2023/05/10 03:04:57;;;;;;;8.18;6.75;;;;;;;6.31;100.00;94825.19;5133133;27;20189;-75
2023/05/10 03:07:24;;;;;;;8.10;5.78;;;;;;;6.28;100.00;94833.88;5132379;27;20548;-77
2023/05/10 03:09:51;;;;;;;10.48;5.85;;;;;;;6.34;100.00;94838.06;5133069;27;20228;-76
2023/05/10 03:12:32;;;;;;;10.77;5.85;;;;;;;6.35;100.00;94834.28;5132998;27;20261;-81
2023/05/10 03:15:08;;;;;;;2.08;1.75;;;;;;;6.36;100.00;94835.88;5133311;27;20193;-76
2023/05/10 03:17:42;;;;;;;5.72;2.70;;;;;;;6.38;100.00;94844.47;5132556;27;20578;-77
2023/05/10 03:20:12;;;;;;;5.38;2.72;;;;;;;6.42;100.00;94845.44;5130069;27;20213;-79
2023/05/10 03:22:44;;;;;;;5.22;3.45;;;;;;;6.43;99.72;94838.97;5132110;27;20227;-78
2023/05/10 03:25:13;;;;;;;5.38;3.45;;;;;;;6.40;99.97;94836.91;5126966;27;20277;-74
2023/05/10 03:27:44;;;;;;;2.92;2.17;;;;;;;6.45;100.00;94845.94;5138149;27;20727;-75
2023/05/10 03:30:13;;;;;;;5.50;3.60;;;;;;;6.46;100.00;94842.16;5132832;27;20293;-76
2023/05/10 03:32:41;;;;;;;3.78;2.92;;;;;;;6.52;99.63;94849.06;5132236;27;20213;-76
2023/05/10 03:35:08;;;;;;;12.82;4.28;;;;;;;6.52;98.52;94846.38;5132473;27;20200;-74
2023/05/10 03:37:35;;;;;;;5.55;3.72;;;;;;;6.58;98.70;94842.50;5132130;27;20207;-76
2023/05/10 03:40:02;;;;;;;6.88;3.75;;;;;;;6.61;98.74;94855.34;5131848;27;20224;-75
2023/05/10 03:42:29;;;;;;;9.60;4.95;;;;;;;6.62;98.23;94854.25;5131905;27;20204;-74
2023/05/10 03:44:57;;;;;;;5.85;3.28;;;;;;;6.61;96.71;94852.66;5132416;27;20242;-75
2023/05/10 03:47:24;;;;;;;3.90;2.60;;;;;;;6.63;96.36;94850.47;5131933;27;20193;-74
2023/05/10 03:49:51;;;;;;;5.72;2.90;;;;;;;6.67;95.44;94870.34;5128275;27;20232;-74
2023/05/10 03:52:18;;;;;;;5.15;2.85;;;;;;;6.67;95.03;94859.56;5132084;27;20197;-75
2023/05/10 03:54:45;;;;;;;3.65;2.50;;;;;;;6.64;95.57;94858.25;5132640;27;20522;-76
2023/05/10 03:57:11;;;;;;;5.07;3.30;;;;;;;6.74;92.64;94873.41;5132355;27;20221;-76
2023/05/10 03:59:38;;;;;;;3.55;2.22;;;;;;;6.78;91.82;94867.16;5132000;27;20728;-74
2023/05/10 04:02:06;;;;;;;3.22;2.33;;;;;;;6.75;92.42;94858.88;5132263;27;20205;-77
2023/05/10 04:04:33;;;;;;;3.25;2.20;;;;;;;6.68;92.33;94859.28;5132352;27;20201;-77
2023/05/10 04:07:00;;;;;;;4.07;2.00;;;;;;;6.78;92.40;94842.13;5132130;27;20285;-86
2023/05/10 04:09:26;;;;;;;4.25;2.42;;;;;;;6.79;93.09;94878.72;5131821;27;20695;-77
2023/05/10 04:11:53;;;;;;;4.80;2.10;;;;;;;6.79;93.57;94870.66;5131542;27;20239;-76
2023/05/10 04:14:20;;;;;;;3.53;2.55;;;;;;;6.79;92.95;94865.25;5131755;27;20209;-76
2023/05/10 04:16:47;;;;;;;5.07;1.67;;;;;;;6.80;93.50;94872.25;5131114;27;20197;-75
2023/05/10 04:19:15;;;;;;;4.10;2.20;;;;;;;6.85;93.24;94880.22;5130852;27;20609;-76
2023/05/10 04:21:42;;;;;;;5.22;2.78;;;;;;;6.78;92.83;94885.19;5130672;27;20261;-75
2023/05/10 04:24:08;;;;;;;9.18;3.47;;;;;;;6.78;94.55;94875.22;5132583;27;20217;-76
2023/05/10 04:26:35;;;;;;;4.53;2.90;;;;;;;6.76;92.28;94874.72;5131817;27;20621;-75
2023/05/10 04:29:02;;;;;;;4.35;2.70;;;;;;;6.81;93.20;94890.00;5130514;27;20727;-75
2023/05/10 04:31:29;;;;;;;4.45;2.55;;;;;;;6.76;94.06;94876.63;5131111;27;20572;-74
2023/05/10 04:33:55;;;;;;;7.03;3.85;;;;;;;6.79;94.64;94876.03;5130801;27;20711;-75
2023/05/10 04:36:24;;;;;;;2.92;2.10;;;;;;;6.71;94.15;94877.50;5144609;27;20691;-75
2023/05/10 04:38:50;;;;;;;6.53;2.88;;;;;;;6.75;93.95;94883.09;5131098;27;20264;-74
2023/05/10 04:41:17;;;;;;;2.95;2.50;;;;;;;6.76;93.98;94877.41;5130935;27;21007;-74
2023/05/10 04:43:44;;;;;;;4.80;2.53;;;;;;;6.77;95.23;94886.28;5130750;27;20282;-75
2023/05/10 04:46:10;;;;;;;4.47;2.92;;;;;;;6.80;95.12;94877.63;5131123;27;20249;-74
2023/05/10 04:48:37;;;;;;;4.60;3.00;;;;;;;6.85;94.44;94880.22;5131108;27;20200;-74
2023/05/10 04:51:06;;;;;;;5.78;3.08;;;;;;;6.88;94.72;94879.63;5129972;27;20654;-74
2023/05/10 04:53:34;;;;;;;3.95;2.25;;;;;;;6.98;93.35;94878.63;5130678;27;20715;-74
2023/05/10 04:56:03;;;;;;;4.07;2.95;;;;;;;7.03;94.26;94882.03;5130865;27;20205;-75
2023/05/10 04:58:30;;;;;;;8.90;3.55;;;;;;;7.10;94.18;94876.25;5130477;27;20188;-77
2023/05/10 05:00:57;;;;;;;3.92;2.60;;;;;;;7.14;93.09;94861.88;5130713;27;20208;-74
2023/05/10 05:03:24;;;;;;;7.00;1.85;;;;;;;7.24;93.56;94868.19;5130475;27;20634;-74
2023/05/10 05:05:50;;;;;;;6.00;4.25;;;;;;;7.32;93.23;94880.94;5130550;27;20208;-75
2023/05/10 05:08:17;;;;;;;3.17;2.53;;;;;;;7.39;93.27;94878.63;5130623;27;20264;-80
2023/05/10 05:10:45;;;;;;;6.03;3.05;;;;;;;7.39;92.04;94867.84;5130424;27;20273;-73
2023/05/10 05:13:13;;;;;;;17.67;3.42;;;;;;;7.37;92.16;94886.22;5130607;27;20205;-73
2023/05/10 05:15:40;;;;;;;4.53;3.08;;;;;;;7.36;93.50;94884.63;5130524;27;20278;-75
2023/05/10 05:18:07;;;;;;;3.58;2.50;;;;;;;7.33;94.26;94890.63;5130400;27;20683;-76
2023/05/10 05:20:36;;;;;;;5.90;3.45;;;;;;;7.30;95.12;94885.81;5130511;27;20209;-77
2023/05/10 05:23:04;;;;;;;5.53;2.47;;;;;;;7.26;95.53;94890.19;5130530;27;20265;-76
2023/05/10 05:25:31;;;;;;;7.35;3.75;;;;;;;7.26;94.82;94882.13;5130332;27;20544;-75
2023/05/10 05:28:00;;;;;;;9.77;4.05;;;;;;;7.26;94.82;94885.63;5130358;27;20220;-75
2023/05/10 05:30:26;;;;;;;6.53;3.65;;;;;;;7.37;95.58;94888.94;5129981;27;20281;-73
2023/05/10 05:32:53;;;;;;;6.50;4.35;;;;;;;7.36;96.15;94900.81;5143506;27;20289;-74
2023/05/10 05:35:20;;;;;;;4.38;3.40;;;;;;;7.32;96.77;94894.41;5129791;27;20197;-77
2023/05/10 05:37:47;;;;;;;3.13;2.78;;;;;;;7.27;97.14;94886.41;5129725;27;20706;-75
2023/05/10 05:40:14;;;;;;;6.57;4.00;;;;;;;7.25;98.02;94899.38;5130239;27;20196;-75
2023/05/10 05:42:44;;;;;;;4.63;3.20;;;;;;;7.31;98.63;94908.97;5130051;27;20240;-75
2023/05/10 05:45:13;;;;;;;4.15;2.65;;;;;;;7.21;98.27;94915.38;5130702;27;20515;-76
2023/05/10 05:47:40;;;;;;;7.10;3.50;;;;;;;7.15;97.54;94900.38;5130212;27;20679;-77
2023/05/10 05:50:10;;;;;;;10.13;4.40;;;;;;;7.19;98.19;94905.97;5130435;27;20225;-75
2023/05/10 05:52:37;;;;;;;7.20;3.97;;;;;;;7.22;98.37;94910.78;5117059;28;20257;-73
2023/05/10 05:55:04;;;;;;;8.57;4.93;;;;;;;7.16;97.58;94918.16;5130330;28;20207;-76
2023/05/10 05:57:31;;;;;;;11.98;4.20;;;;;;;7.21;98.16;94917.25;5129909;28;21018;-76
2023/05/10 05:59:59;;;;;;;7.80;4.22;;;;;;;7.11;98.44;94924.41;5129743;28;20701;-75
2023/05/10 06:02:30;;;;;;;8.10;4.88;;;;;;;7.12;100.00;94920.63;5130134;27;20660;-75
2023/05/10 06:04:57;;;;;;;7.03;4.28;;;;;;;7.14;98.44;94926.53;5134000;27;20238;-74
2023/05/10 06:07:24;;;;;;;6.15;4.18;;;;;;;7.18;98.04;94915.16;5134672;27;20287;-76
2023/05/10 06:09:50;;;;;;;8.13;5.22;;;;;;;7.19;98.70;94912.16;5134428;27;20625;-76
2023/05/10 06:12:17;;;;;;;15.63;7.60;;;;;;;7.28;100.00;94914.97;5133728;27;20242;-75
2023/05/10 06:14:44;;;;;;;6.32;2.72;;;;;;;7.34;98.32;94913.78;5150341;27;20215;-76
2023/05/10 06:17:10;;;;;;;9.20;5.32;;;;;;;7.33;97.76;94917.56;5145229;27;20532;-76
2023/05/10 06:19:39;;;;;;;9.85;4.80;;;;;;;7.35;97.80;94918.06;5133699;27;20246;-77
2023/05/10 06:22:05;;;;;;;7.70;4.10;;;;;;;7.37;97.19;94913.19;5133792;27;20204;-75
2023/05/10 06:24:32;;;;;;;5.32;3.40;;;;;;;7.39;96.93;94910.97;5133623;27;20262;-80
2023/05/10 06:27:00;;;;;;;5.90;3.72;;;;;;;7.45;96.71;94920.56;5133412;27;20250;-75
2023/05/10 06:29:26;;;;;;;5.55;3.65;;;;;;;7.58;96.40;94946.69;5147714;27;20212;-74
2023/05/10 06:31:54;;;;;;;8.15;4.03;;;;;;;7.54;95.58;94934.91;5133954;27;20226;-75
2023/05/10 06:34:20;;;;;;;5.95;4.28;;;;;;;7.54;95.65;94929.50;5133393;27;20228;-75
2023/05/10 06:36:49;;;;;;;10.52;4.38;;;;;;;7.66;96.34;94929.81;5133817;27;20204;-75
2023/05/10 06:39:15;;;;;;;7.40;4.97;;;;;;;7.63;94.33;94922.34;5133889;27;20197;-76
2023/05/10 06:41:42;;;;;;;7.53;5.03;;;;;;;7.67;94.51;94923.31;5133480;27;20207;-80
2023/05/10 06:44:09;;;;;;;5.88;3.95;;;;;;;7.74;93.92;94921.03;5133187;27;20288;-74
2023/05/10 06:46:36;;;;;;;12.10;5.30;;;;;;;7.78;93.12;94916.63;5133773;27;20254;-76
2023/05/10 06:49:03;;;;;;;9.82;4.70;;;;;;;7.82;93.10;94920.28;5133676;27;20625;-73
2023/05/10 06:51:29;;;;;;;9.50;4.07;;;;;;;7.91;93.38;94922.28;5121991;27;20225;-76
2023/05/10 06:53:58;;;;;;;5.22;3.65;;;;;;;7.91;92.50;94922.28;5131111;27;20205;-76
2023/05/10 06:56:24;;;;;;;6.22;4.18;;;;;;;7.99;93.69;94918.88;5133174;27;20605;-74
2023/05/10 06:58:51;;;;;;;8.15;4.72;;;;;;;8.02;92.77;94918.28;5130660;27;20205;-74
2023/05/10 07:01:18;;;;;;;12.32;5.13;;;;;;;8.17;93.05;94915.22;5133197;27;20258;-74
2023/05/10 07:03:45;;;;;;;11.15;5.78;;;;;;;8.17;92.02;94936.81;5132951;27;20200;-75
2023/05/10 07:06:11;;;;;;;6.97;4.28;;;;;;;8.06;90.91;94924.66;5132812;27;20606;-75
2023/05/10 07:08:38;;;;;;;6.40;4.22;;;;;;;7.94;91.58;94927.06;5132861;27;20613;-74
2023/05/10 07:11:08;;;;;;;9.80;5.18;;;;;;;7.93;92.20;94930.84;5127746;27;20229;-74
2023/05/10 07:13:36;;;;;;;4.57;3.10;;;;;;;7.96;91.47;94930.25;5129741;27;20291;-76
2023/05/10 07:16:03;;;;;;;6.60;3.95;;;;;;;7.95;91.58;94928.66;5127314;27;20287;-75
2023/05/10 07:18:29;;;;;;;7.90;4.75;;;;;;;8.08;93.14;94930.53;5132783;27;20196;-74
2023/05/10 07:20:58;;;;;;;12.07;6.25;;;;;;;8.18;92.86;94928.41;5132473;27;20253;-77
2023/05/10 07:23:24;;;;;;;7.97;4.57;;;;;;;8.34;92.69;94923.47;5131330;27;20634;-76
2023/05/10 07:25:52;;;;;;;4.40;3.20;;;;;;;8.10;91.75;94914.84;5132015;27;20680;-74
2023/05/10 07:28:20;;;;;;;7.55;4.03;;;;;;;8.09;91.60;94930.22;5132200;27;20204;-74
2023/05/10 07:30:47;;;;;;;9.07;3.83;;;;;;;7.96;91.56;94938.34;5131508;27;20229;-73
2023/05/10 07:33:15;;;;;;;10.80;5.90;;;;;;;8.09;93.16;94942.91;5132260;27;20848;-75
2023/05/10 07:35:42;;;;;;;10.15;5.70;;;;;;;8.06;92.72;94941.63;5132297;27;20289;-75
2023/05/10 07:38:10;;;;;;;7.53;3.72;;;;;;;8.00;91.95;94942.03;5132442;27;20567;-75
2023/05/10 07:40:38;;;;;;;10.88;5.93;;;;;;;8.01;92.46;94949.03;5131828;27;20204;-75
2023/05/10 07:43:05;;;;;;;9.07;5.05;;;;;;;7.96;92.53;94947.25;5117129;27;20300;-74
2023/05/10 07:45:33;;;;;;;13.15;6.50;;;;;;;7.95;91.85;94940.25;5116803;27;20277;-72
2023/05/10 07:48:00;;;;;;;10.13;5.95;;;;;;;8.08;91.96;94938.63;5130289;27;20201;-75
2023/05/10 07:50:27;;;;;;;5.03;3.83;;;;;;;8.26;90.79;94951.16;5132387;27;20232;-75
2023/05/10 07:52:54;;;;;;;7.70;4.82;;;;;;;8.21;90.21;94948.56;5132296;27;20201;-74
2023/05/10 07:55:22;;;;;;;7.32;4.40;;;;;;;8.31;90.88;94937.56;5130676;27;20249;-73
2023/05/10 07:57:48;;;;;;;7.15;4.13;;;;;;;8.20;89.89;94946.97;5131586;27;20291;-73
2023/05/10 08:00:19;;;;;;;8.18;4.80;;;;;;;8.27;90.85;94936.56;5131948;27;20209;-74
2023/05/10 08:02:47;;;;;;;11.73;5.88;;;;;;;8.34;89.76;94946.97;5130286;27;20196;-73
2023/05/10 08:05:14;;;;;;;6.80;4.45;;;;;;;8.21;89.19;94956.66;5129772;27;20249;-72
2023/05/10 08:07:42;;;;;;;10.55;4.05;;;;;;;8.26;88.96;94945.78;5131408;27;20623;-72
2023/05/10 08:10:10;;;;;;;13.07;6.47;;;;;;;8.29;88.88;94947.88;5131988;27;20231;-73
2023/05/10 08:12:37;;;;;;;6.15;4.40;;;;;;;8.20;88.85;94946.97;5131292;27;20291;-72
2023/05/10 08:15:05;;;;;;;8.38;4.68;;;;;;;8.23;88.25;94957.16;5118832;27;20208;-73
2023/05/10 08:17:32;;;;;;;9.27;6.07;;;;;;;8.28;88.53;94948.97;5130905;27;20205;-73
2023/05/10 08:20:00;;;;;;;6.60;4.88;;;;;;;8.43;88.61;94940.56;5130842;27;20205;-73
2023/05/10 08:22:27;;;;;;;7.18;4.90;;;;;;;8.45;87.79;94949.16;5130833;27;20197;-73
2023/05/10 08:24:54;;;;;;;14.57;5.45;;;;;;;8.49;88.20;94950.09;5128819;27;20262;-73
2023/05/10 08:27:20;;;;;;;5.32;4.05;;;;;;;8.41;87.88;94948.16;5131088;27;20253;-73
2023/05/10 08:29:47;;;;;;;8.55;5.45;;;;;;;8.58;87.12;94955.59;5131103;27;20208;-73
2023/05/10 08:32:14;;;;;;;11.32;5.03;;;;;;;8.62;86.02;94947.66;5130901;27;20277;-73
2023/05/10 08:34:40;;;;;;;6.88;4.00;;;;;;;8.69;86.70;94958.84;5132051;27;20703;-73
2023/05/10 08:37:10;;;;;;;8.73;5.57;;;;;;;8.64;87.23;94957.06;5130919;27;20205;-72
2023/05/10 08:39:45;;;;;;;6.82;4.07;;;;;;;8.65;87.39;94942.44;5131042;27;20197;-72
2023/05/10 08:42:14;;;;;;;5.95;3.88;;;;;;;8.81;87.73;94951.78;5144910;27;20253;-74
2023/05/10 08:44:41;;;;;;;10.55;7.20;;;;;;;8.74;88.25;94961.44;5129015;27;20192;-72
2023/05/10 08:47:10;;;;;;;6.70;4.82;;;;;;;8.60;89.68;94966.88;5130912;27;20543;-73
2023/05/10 08:49:38;;;;;;;8.52;5.03;;;;;;;8.64;90.48;94956.25;5130571;27;20197;-73
2023/05/10 08:52:08;;;;;;;9.73;5.50;;;;;;;8.69;91.13;94953.44;5130253;27;20274;-73
2023/05/10 08:54:37;;;;;;;8.18;4.75;;;;;;;8.41;90.49;94964.34;5127611;27;20657;-73
2023/05/10 08:57:04;;;;;;;12.95;6.95;;;;;;;8.27;92.01;94957.38;5130298;27;20958;-74
2023/05/10 08:59:31;;;;;;;8.65;5.45;;;;;;;8.37;92.42;94951.75;5130243;27;20246;-73
2023/05/10 09:01:59;;;;;;;10.02;6.10;;;;;;;8.36;92.82;94964.47;5130480;27;20209;-73
2023/05/10 09:04:26;;;;;;;15.00;6.40;;;;;;;8.29;93.94;94961.38;5129731;27;20225;-75
2023/05/10 09:06:53;;;;;;;7.85;4.68;;;;;;;8.30;93.01;94964.84;5134919;27;20287;-74
2023/05/10 09:09:21;;;;;;;8.65;4.88;;;;;;;8.22;93.14;94960.97;5139552;27;20348;-73
2023/05/10 09:11:49;;;;;;;6.90;4.13;;;;;;;8.04;91.58;94972.72;5130508;27;20324;-74
2023/05/10 09:14:18;;;;;;;7.20;4.75;;;;;;;8.02;94.05;94961.44;5128850;27;20725;-74
2023/05/10 09:16:44;;;;;;;6.25;4.63;;;;;;;7.99;93.07;94956.63;5130701;27;20224;-74
2023/05/10 09:19:11;;;;;;;6.28;4.32;;;;;;;8.11;93.25;94959.59;5130103;27;20205;-73
2023/05/10 09:21:39;;;;;;;11.90;5.85;;;;;;;8.31;93.55;94953.75;5129374;27;20197;-74
2023/05/10 09:24:06;;;;;;;9.80;5.97;;;;;;;8.24;92.35;94964.16;5121463;27;20337;-73
2023/05/10 09:26:35;;;;;;;6.25;4.22;;;;;;;8.39;92.72;94950.34;5128979;27;20207;-75
2023/05/10 09:29:03;;;;;;;8.52;4.50;;;;;;;8.40;92.64;94949.25;5129788;27;20312;-74
2023/05/10 09:31:46;;;;;;;8.02;4.30;;;;;;;8.59;92.62;94943.69;5129811;27;20781;-74
2023/05/10 09:34:16;;;;;;;11.18;5.25;;;;;;;8.75;90.62;94941.38;5119330;27;20308;-73
2023/05/10 09:36:54;;;;;;;5.32;3.97;;;;;;;8.89;90.67;94942.91;5119031;27;20189;-76
2023/05/10 09:39:21;;;;;;;7.88;4.93;;;;;;;8.89;88.93;94947.53;5129294;27;20284;-74
2023/05/10 09:41:48;;;;;;;6.57;4.28;;;;;;;8.91;88.26;94943.41;5129688;27;20208;-73
2023/05/10 09:44:20;;;;;;;7.55;4.85;;;;;;;8.84;87.97;94943.06;5124055;27;20716;-76
2023/05/10 09:46:51;;;;;;;4.03;3.47;;;;;;;8.88;88.17;94943.25;5129719;27;20247;-73
2023/05/10 09:49:18;;;;;;;9.18;6.30;;;;;;;8.92;88.45;94944.19;5130015;27;20207;-73
2023/05/10 09:51:44;;;;;;;10.10;4.65;;;;;;;9.01;88.85;94938.88;5129572;27;20285;-73
2023/05/10 09:54:12;;;;;;;11.25;6.90;;;;;;;9.14;89.10;94933.38;5109337;28;20196;-74
2023/05/10 09:56:40;;;;;;;16.10;5.82;;;;;;;9.08;87.52;94934.59;5129346;28;20201;-74
2023/05/10 09:59:08;;;;;;;7.20;5.22;;;;;;;9.32;87.25;94936.13;5129791;28;20269;-74
2023/05/10 10:01:36;;;;;;;6.43;3.65;;;;;;;9.18;85.67;94933.53;5143305;27;20204;-75
2023/05/10 10:04:04;;;;;;;7.00;4.30;;;;;;;9.25;86.69;94929.28;5128749;28;20204;-73
2023/05/10 10:06:37;;;;;;;6.72;5.05;;;;;;;9.30;86.28;94920.22;5129173;28;20208;-74
2023/05/10 10:09:05;;;;;;;6.93;3.65;;;;;;;9.25;84.98;94918.47;5129459;28;20289;-74
2023/05/10 10:11:32;;;;;;;5.03;3.67;;;;;;;9.30;85.27;94908.63;5129356;28;20246;-74
2023/05/10 10:13:59;;;;;;;7.78;5.53;;;;;;;9.52;85.00;94909.34;5121397;28;20197;-74
2023/05/10 10:16:27;;;;;;;4.95;3.30;;;;;;;9.55;85.02;94913.34;5124918;28;20204;-74
2023/05/10 10:18:57;;;;;;;6.60;3.80;;;;;;;9.65;84.43;94910.34;5129320;28;20738;-73
2023/05/10 10:21:26;;;;;;;10.75;5.75;;;;;;;9.62;84.04;94905.56;5143917;27;20232;-73
2023/05/10 10:23:56;;;;;;;7.53;5.30;;;;;;;9.68;83.85;94907.00;5122318;28;20510;-73
2023/05/10 10:26:23;;;;;;;5.45;3.75;;;;;;;9.51;84.72;94915.06;5126566;28;20193;-74
2023/05/10 10:29:07;;;;;;;7.78;4.35;;;;;;;9.40;85.38;94919.16;5129372;28;20196;-73
2023/05/10 10:31:41;;;;;;;7.82;4.32;;;;;;;9.38;84.53;94922.19;5125639;28;20209;-74
2023/05/10 10:34:13;;;;;;;7.07;4.05;;;;;;;9.59;84.95;94911.59;5123669;28;20520;-74
2023/05/10 10:36:46;;;;;;;13.82;5.32;;;;;;;9.66;83.98;94901.13;5128542;28;20242;-74
2023/05/10 10:39:13;;;;;;;14.55;4.30;;;;;;;9.60;84.38;94918.59;5129392;28;20604;-73
2023/05/10 10:41:44;;;;;;;7.53;4.65;;;;;;;9.78;83.51;94920.22;5128118;28;20739;-73
2023/05/10 10:44:25;;;;;;;7.25;5.68;;;;;;;9.66;82.89;94920.03;5125238;28;20560;-72
2023/05/10 10:47:08;;;;;;;5.93;3.20;;;;;;;9.72;82.55;94889.03;5128840;28;20208;-74
2023/05/10 10:49:39;;;;;;;5.35;3.95;;;;;;;9.77;82.62;94923.25;5119402;27;20189;-73
2023/05/10 10:52:28;;;;;;;8.70;5.30;;;;;;;10.07;82.39;94916.16;5121424;27;20217;-73
2023/05/10 10:55:08;;;;;;;11.60;5.30;;;;;;;10.19;81.75;94914.44;5132131;27;20193;-72
2023/05/10 10:57:46;;;;;;;4.70;3.17;;;;;;;10.26;80.82;94920.16;5120493;27;20193;-74
2023/05/10 11:00:27;;;;;;;3.88;3.08;;;;;;;10.02;81.03;94914.38;5129535;27;20552;-72
2023/05/10 11:02:59;;;;;;;7.13;4.05;;;;;;;10.01;80.95;94915.50;5130610;27;20197;-73
2023/05/10 11:05:48;;;;;;;4.82;2.92;;;;;;;10.04;81.68;94931.09;5128471;27;20208;-72
2023/05/10 11:08:18;;;;;;;9.10;4.28;;;;;;;10.01;81.24;94917.41;5127503;27;20200;-72
2023/05/10 11:10:54;;;;;;;3.78;3.10;;;;;;;10.26;80.46;94913.94;5121199;27;20437;-72
2023/05/10 11:13:34;;;;;;;7.53;4.88;;;;;;;10.42;80.38;94912.34;5128417;27;20540;-73
2023/05/10 11:16:14;;;;;;;6.28;4.55;;;;;;;10.77;80.17;94917.75;5126146;27;20617;-74
2023/05/10 11:18:53;;;;;;;6.80;4.15;;;;;;;10.86;78.98;94904.97;5119770;27;20212;-73
2023/05/10 11:21:22;;;;;;;7.93;3.03;;;;;;;10.79;78.37;94915.53;5131658;27;20192;-73
2023/05/10 11:23:57;;;;;;;5.28;3.72;;;;;;;10.51;77.95;94898.81;5129959;27;20228;-74
2023/05/10 11:26:33;;;;;;;6.05;3.22;;;;;;;10.76;78.14;94914.25;5129009;27;20655;-76
2023/05/10 11:29:02;;;;;;;8.00;4.30;;;;;;;10.64;78.72;94909.50;5131995;27;20192;-72
2023/05/10 11:31:29;;;;;;;5.72;3.58;;;;;;;10.71;79.38;94903.56;5136630;27;20315;-72
2023/05/10 11:33:57;;;;;;;8.73;5.45;;;;;;;10.59;79.05;94912.34;5131062;27;20239;-79
2023/05/10 11:36:30;;;;;;;6.32;3.88;;;;;;;10.47;79.04;94909.50;5131271;27;20189;-74
2023/05/10 11:38:57;;;;;;;7.05;3.47;;;;;;;10.31;79.81;94905.69;5129946;27;20575;-75
2023/05/10 11:41:29;;;;;;;8.77;2.85;;;;;;;10.23;80.71;94911.91;5129648;27;20269;-73
2023/05/10 11:44:04;;;;;;;4.10;3.30;;;;;;;9.98;80.91;94880.94;5128264;27;20695;-73
2023/05/10 11:46:34;;;;;;;7.03;3.95;;;;;;;10.22;80.95;94908.38;5127144;27;20275;-75
2023/05/10 11:49:06;;;;;;;6.38;4.20;;;;;;;10.26;80.85;94909.31;5129565;27;20230;-74